createdAt,value
2018-06-24T00:01:49.840Z,10.05
2018-06-24T00:04:18.145Z,11.95
2018-06-24T00:06:46.468Z,11.43
2018-06-24T00:09:14.768Z,11.75
2018-06-24T00:11:43.113Z,11.83
2018-06-24T00:14:11.441Z,11.53
2018-06-24T00:16:39.775Z,11.73
2018-06-24T00:19:08.084Z,12.73
2018-06-24T00:21:36.416Z,10.10
2018-06-24T00:24:04.720Z,10.95
2018-06-24T00:26:33.074Z,9.55
2018-06-24T00:29:01.450Z,11.00
2018-06-24T00:31:29.868Z,10.78
2018-06-24T00:33:58.174Z,10.63
2018-06-24T00:36:26.506Z,11.20
2018-06-24T00:38:54.808Z,10.58
2018-06-24T00:41:23.128Z,9.83
2018-06-24T00:43:51.437Z,9.33
2018-06-24T00:46:19.764Z,10.03
2018-06-24T00:48:48.065Z,8.80
2018-06-24T00:51:16.393Z,9.90
2018-06-24T00:53:44.696Z,8.65
2018-06-24T00:56:13.032Z,9.60
2018-06-24T00:58:41.440Z,8.40
2018-06-24T01:01:09.833Z,8.93
2018-06-24T01:03:38.131Z,9.43
2018-06-24T01:06:06.465Z,9.00
2018-06-24T01:08:34.520Z,8.40
2018-06-24T01:11:02.884Z,10.13
2018-06-24T01:13:31.188Z,8.45
2018-06-24T01:15:59.501Z,9.68
2018-06-24T01:18:27.820Z,9.70
2018-06-24T01:20:56.129Z,8.70
2018-06-24T01:23:24.459Z,10.13
2018-06-24T01:25:52.768Z,9.33
2018-06-24T01:28:21.092Z,9.30
2018-06-24T01:30:49.399Z,7.45
2018-06-24T01:33:17.724Z,8.43
2018-06-24T01:35:46.080Z,8.70
2018-06-24T01:38:14.405Z,8.95
2018-06-24T01:40:42.716Z,8.88
2018-06-24T01:43:11.033Z,9.63
2018-06-24T01:45:39.340Z,8.00
2018-06-24T01:48:07.656Z,8.50
2018-06-24T01:50:35.744Z,9.95
2018-06-24T01:53:04.076Z,8.25
2018-06-24T01:55:32.396Z,8.40
2018-06-24T01:58:00.728Z,10.15
2018-06-24T02:00:29.028Z,8.58
2018-06-24T02:02:57.383Z,8.88
2018-06-24T02:05:25.680Z,9.05
2018-06-24T02:07:54.006Z,8.80
2018-06-24T02:10:22.304Z,9.35
2018-06-24T02:12:55.985Z,10.13
2018-06-24T02:15:24.297Z,9.80
2018-06-24T02:17:52.622Z,10.30
2018-06-24T02:20:20.931Z,9.55
2018-06-24T02:22:49.255Z,11.12
2018-06-24T02:25:17.557Z,10.93
2018-06-24T02:27:45.891Z,9.90
2018-06-24T02:30:14.196Z,9.88
2018-06-24T02:32:42.520Z,10.75
2018-06-24T02:35:10.815Z,10.72
2018-06-24T02:37:39.137Z,9.95
2018-06-24T02:40:07.449Z,8.88
2018-06-24T02:42:35.772Z,9.23
2018-06-24T02:45:04.272Z,9.60
2018-06-24T02:47:32.632Z,10.03
2018-06-24T02:50:00.940Z,9.48
2018-06-24T02:52:29.268Z,10.55
2018-06-24T02:54:57.564Z,8.83
2018-06-24T02:57:25.883Z,9.65
2018-06-24T02:59:54.180Z,9.03
2018-06-24T03:02:22.501Z,9.80
2018-06-24T03:04:50.844Z,12.65
2018-06-24T03:07:19.164Z,12.90
2018-06-24T03:09:47.474Z,12.70
2018-06-24T03:12:15.813Z,14.00
2018-06-24T03:14:44.121Z,14.87
2018-06-24T03:17:12.490Z,15.25
2018-06-24T03:19:40.860Z,14.35
2018-06-24T03:22:09.184Z,15.85
2018-06-24T03:24:37.481Z,16.02
2018-06-24T03:27:05.904Z,17.35
2018-06-24T03:29:34.256Z,16.37
2018-06-24T03:32:02.565Z,18.45
2018-06-24T03:34:30.896Z,18.87
2018-06-24T03:36:59.197Z,18.10
2018-06-24T03:39:27.520Z,18.73
2018-06-24T03:41:55.820Z,17.50
2018-06-24T03:44:24.144Z,17.85
2018-06-24T03:46:52.658Z,18.92
2018-06-24T03:49:21.089Z,16.32
2018-06-24T03:51:49.411Z,17.15
2018-06-24T03:54:17.748Z,17.10
2018-06-24T03:56:46.065Z,15.95
2018-06-24T03:59:14.388Z,17.27
2018-06-24T04:01:42.705Z,15.48
2018-06-24T04:04:11.024Z,14.85
2018-06-24T04:06:39.335Z,14.73
2018-06-24T04:09:08.280Z,14.03
2018-06-24T04:11:36.695Z,14.40
2018-06-24T04:16:38.598Z,13.78
2018-06-24T04:19:06.915Z,13.58
2018-06-24T04:21:35.229Z,15.18
2018-06-24T04:24:03.553Z,13.85
2018-06-24T04:26:31.960Z,11.55
2018-06-24T04:29:00.281Z,13.62
2018-06-24T04:31:28.588Z,12.63
2018-06-24T04:33:56.904Z,13.08
2018-06-24T04:36:25.220Z,13.35
2018-06-24T04:38:53.548Z,12.18
2018-06-24T04:41:21.905Z,11.80
2018-06-24T04:43:50.232Z,12.20
2018-06-24T04:46:18.537Z,12.00
2018-06-24T04:48:46.867Z,10.88
2018-06-24T04:51:15.178Z,11.15
2018-06-24T04:53:43.512Z,11.05
2018-06-24T04:56:11.820Z,10.70
2018-06-24T04:58:40.183Z,10.08
2018-06-24T05:01:08.484Z,8.53
2018-06-24T05:03:36.552Z,9.70
2018-06-24T05:06:04.889Z,9.60
2018-06-24T05:08:33.220Z,10.50
2018-06-24T05:11:01.555Z,10.15
2018-06-24T05:13:29.877Z,8.73
2018-06-24T05:15:58.184Z,9.58
2018-06-24T05:18:26.508Z,9.88
2018-06-24T05:20:54.813Z,9.95
2018-06-24T05:23:23.143Z,8.78
2018-06-24T05:25:51.448Z,8.48
2018-06-24T05:28:19.782Z,9.78
2018-06-24T05:30:48.080Z,8.75
2018-06-24T05:33:16.402Z,8.75
2018-06-24T05:35:44.708Z,9.15
2018-06-24T05:38:13.041Z,8.85
2018-06-24T05:40:41.363Z,7.70
2018-06-24T05:43:09.763Z,7.97
2018-06-24T05:45:38.144Z,7.33
2018-06-24T05:48:06.556Z,7.67
2018-06-24T05:50:35.000Z,7.85
2018-06-24T05:53:03.384Z,7.60
2018-06-24T05:55:31.816Z,8.98
2018-06-24T05:58:00.112Z,8.40
2018-06-24T06:00:28.438Z,7.75
2018-06-24T06:02:56.499Z,7.58
2018-06-24T06:05:24.585Z,7.72
2018-06-24T06:07:52.880Z,7.10
2018-06-24T06:10:21.321Z,6.83
2018-06-24T06:12:49.556Z,6.87
2018-06-24T06:15:17.889Z,7.22
2018-06-24T06:17:46.208Z,6.37
2018-06-24T06:20:14.541Z,6.85
2018-06-24T06:22:43.051Z,6.65
2018-06-24T06:25:11.408Z,6.28
2018-06-24T06:27:39.743Z,6.40
2018-06-24T06:30:08.327Z,6.20
2018-06-24T06:32:38.149Z,6.85
2018-06-24T06:35:06.540Z,5.83
2018-06-24T06:37:34.996Z,6.22
2018-06-24T06:40:03.341Z,5.60
2018-06-24T06:42:31.744Z,5.42
2018-06-24T06:45:00.154Z,5.42
2018-06-24T06:47:28.424Z,6.00
2018-06-24T06:49:56.744Z,4.87
2018-06-24T06:52:25.048Z,5.53
2018-06-24T06:54:53.398Z,4.67
2018-06-24T06:57:21.697Z,4.37
2018-06-24T06:59:50.481Z,4.67
2018-06-24T07:02:18.968Z,4.47
2018-06-24T07:04:47.349Z,4.20
2018-06-24T07:07:15.669Z,4.62
2018-06-24T07:09:43.997Z,3.92
2018-06-24T07:12:12.320Z,4.67
2018-06-24T07:14:40.643Z,3.55
2018-06-24T07:17:08.957Z,4.62
2018-06-24T07:19:37.288Z,3.77
2018-06-24T07:22:05.655Z,3.00
2018-06-24T07:24:33.956Z,3.15
2018-06-24T07:27:02.048Z,4.20
2018-06-24T07:29:30.420Z,3.17
2018-06-24T07:31:58.764Z,3.60
2018-06-24T07:34:27.084Z,3.20
2018-06-24T07:36:55.395Z,3.45
2018-06-24T07:39:23.833Z,3.05
2018-06-24T07:41:52.136Z,3.90
2018-06-24T07:44:20.451Z,2.98
2018-06-24T07:46:48.752Z,3.05
2018-06-24T07:49:17.073Z,3.65
2018-06-24T07:51:45.488Z,2.80
2018-06-24T07:54:13.888Z,2.95
2018-06-24T07:56:42.196Z,3.12
2018-06-24T07:59:10.505Z,2.72
2018-06-24T08:01:38.819Z,3.17
2018-06-24T08:04:07.233Z,3.17
2018-06-24T08:06:35.560Z,2.90
2018-06-24T08:09:05.704Z,3.13
2018-06-24T08:11:34.046Z,2.97
2018-06-24T08:14:02.341Z,3.27
2018-06-24T08:16:30.668Z,3.13
2018-06-24T08:18:59.167Z,3.20
2018-06-24T08:21:27.493Z,2.83
2018-06-24T08:23:55.896Z,2.87
2018-06-24T08:26:24.436Z,2.90
2018-06-24T08:28:52.738Z,2.73
2018-06-24T08:31:21.048Z,2.70
2018-06-24T08:33:49.362Z,2.30
2018-06-24T08:36:17.676Z,2.03
2018-06-24T08:38:45.975Z,3.17
2018-06-24T08:41:14.301Z,2.70
2018-06-24T08:43:42.601Z,2.10
2018-06-24T08:46:10.929Z,2.03
2018-06-24T08:48:39.220Z,2.13
2018-06-24T08:51:07.551Z,2.00
2018-06-24T08:53:35.884Z,1.90
2018-06-24T08:56:04.548Z,2.03
2018-06-24T08:58:32.876Z,2.07
2018-06-24T09:01:01.185Z,2.03
2018-06-24T09:03:29.500Z,2.20
2018-06-24T09:05:57.822Z,2.60
2018-06-24T09:08:26.129Z,2.00
2018-06-24T09:10:54.473Z,1.97
2018-06-24T09:13:22.516Z,1.77
2018-06-24T09:15:50.915Z,2.20
2018-06-24T09:18:19.209Z,2.00
2018-06-24T09:20:47.525Z,1.90
2018-06-24T09:23:15.820Z,2.10
2018-06-24T09:25:44.132Z,2.40
2018-06-24T09:28:12.436Z,2.37
2018-06-24T09:30:40.817Z,2.33
2018-06-24T09:33:09.089Z,2.17
2018-06-24T09:35:37.408Z,2.10
2018-06-24T09:38:05.812Z,2.17
2018-06-24T09:40:34.161Z,2.50
2018-06-24T09:43:02.465Z,2.07
2018-06-24T09:45:30.786Z,2.13
2018-06-24T09:47:59.088Z,2.10
2018-06-24T09:50:27.407Z,2.20
2018-06-24T09:52:55.751Z,2.40
2018-06-24T09:55:24.048Z,2.30
2018-06-24T09:57:52.344Z,1.97
2018-06-24T10:00:21.631Z,1.80
2018-06-24T10:02:50.502Z,1.73
2018-06-24T10:05:18.893Z,1.87
2018-06-24T10:07:47.212Z,2.00
2018-06-24T10:10:15.547Z,2.60
2018-06-24T10:12:43.884Z,2.13
2018-06-24T10:15:12.177Z,1.90
2018-06-24T10:17:40.502Z,2.17
2018-06-24T10:20:08.807Z,2.33
2018-06-24T10:22:37.132Z,2.20
2018-06-24T10:25:05.448Z,2.20
2018-06-24T10:27:33.756Z,2.33
2018-06-24T10:30:02.128Z,2.03
2018-06-24T10:32:30.446Z,2.00
2018-06-24T10:34:58.744Z,1.63
2018-06-24T10:37:27.072Z,2.40
2018-06-24T10:39:55.464Z,2.67
2018-06-24T10:42:23.873Z,2.00
2018-06-24T10:44:52.980Z,2.03
2018-06-24T10:47:21.352Z,2.23
2018-06-24T10:49:51.076Z,1.80
2018-06-24T10:52:26.760Z,1.80
2018-06-24T10:54:55.073Z,2.50
2018-06-24T10:57:23.408Z,2.03
2018-06-24T10:59:51.740Z,2.13
2018-06-24T11:02:20.079Z,1.80
2018-06-24T11:04:48.127Z,2.23
2018-06-24T11:07:16.453Z,2.30
2018-06-24T11:09:44.792Z,2.37
2018-06-24T11:12:13.148Z,2.40
2018-06-24T11:14:41.448Z,1.87
2018-06-24T11:17:09.932Z,2.60
2018-06-24T11:19:38.236Z,1.77
2018-06-24T11:22:06.556Z,1.50
2018-06-24T11:24:34.851Z,1.87
2018-06-24T11:27:03.177Z,2.23
2018-06-24T11:29:31.468Z,1.60
2018-06-24T11:31:59.788Z,2.23
2018-06-24T11:34:28.097Z,2.40
2018-06-24T11:36:56.459Z,2.00
2018-06-24T11:39:25.145Z,2.77
2018-06-24T11:41:53.477Z,2.50
2018-06-24T11:44:21.771Z,1.53
2018-06-24T11:46:50.089Z,2.40
2018-06-24T11:49:18.393Z,1.83
2018-06-24T11:51:46.712Z,1.90
2018-06-24T11:54:15.006Z,1.97
2018-06-24T11:56:43.325Z,2.23
2018-06-24T11:59:11.620Z,1.90
2018-06-24T12:01:39.936Z,2.00
2018-06-24T12:04:08.331Z,1.93
2018-06-24T12:06:37.255Z,2.00
2018-06-24T12:09:07.415Z,2.60
2018-06-24T12:11:35.758Z,2.47
2018-06-24T12:14:04.185Z,2.00
2018-06-24T12:16:32.532Z,2.10
2018-06-24T12:19:00.868Z,2.30
2018-06-24T12:21:29.247Z,1.63
2018-06-24T12:23:57.897Z,1.90
2018-06-24T12:26:26.233Z,2.03
2018-06-24T12:28:54.893Z,2.40
2018-06-24T12:31:23.257Z,2.10
2018-06-24T12:33:51.575Z,2.50
2018-06-24T12:36:20.043Z,2.23
2018-06-24T12:38:48.360Z,2.20
2018-06-24T12:41:16.964Z,2.50
2018-06-24T12:43:45.692Z,2.90
2018-06-24T12:46:13.989Z,2.70
2018-06-24T12:48:42.308Z,3.27
2018-06-24T12:51:10.608Z,2.37
2018-06-24T12:53:39.412Z,3.17
2018-06-24T12:56:07.985Z,3.30
2018-06-24T12:58:36.356Z,3.30
2018-06-24T13:01:04.667Z,3.30
2018-06-24T13:03:32.984Z,3.00
2018-06-24T13:06:01.350Z,3.10
2018-06-24T13:08:29.707Z,2.50
2018-06-24T13:10:58.080Z,3.00
2018-06-24T13:13:26.600Z,2.50
2018-06-24T13:15:55.021Z,5.30
2018-06-24T13:18:23.499Z,2.90
2018-06-24T13:20:51.915Z,2.50
2018-06-24T13:23:20.505Z,2.23
2018-06-24T13:25:48.817Z,2.57
2018-06-24T13:28:17.301Z,2.70
2018-06-24T13:30:45.708Z,2.30
2018-06-24T13:33:14.033Z,2.47
2018-06-24T13:35:42.509Z,2.33
2018-06-24T13:38:11.657Z,1.90
2018-06-24T13:40:40.226Z,2.20
2018-06-24T13:43:08.609Z,2.00
2018-06-24T13:45:36.913Z,1.80
2018-06-24T13:48:05.900Z,2.10
2018-06-24T13:50:34.188Z,2.10
2018-06-24T13:53:02.508Z,1.83
2018-06-24T13:55:30.801Z,2.20
2018-06-24T13:57:59.321Z,2.43
2018-06-24T14:00:27.960Z,2.37
2018-06-24T14:02:57.026Z,2.00
2018-06-24T14:05:25.884Z,2.10
2018-06-24T14:07:54.699Z,2.60
2018-06-24T14:10:23.440Z,2.50
2018-06-24T14:12:51.903Z,2.53
2018-06-24T14:15:22.044Z,2.57
2018-06-24T14:17:50.369Z,2.87
2018-06-24T14:20:19.943Z,2.53
2018-06-24T14:22:49.366Z,2.20
2018-06-24T14:25:17.695Z,2.33
2018-06-24T14:27:46.017Z,2.50
2018-06-24T14:30:14.309Z,2.10
2018-06-24T14:32:42.644Z,2.30
2018-06-24T14:35:11.553Z,2.37
2018-06-24T14:37:39.905Z,2.93
2018-06-24T14:40:08.210Z,2.63
2018-06-24T14:42:36.628Z,2.50
2018-06-24T14:45:06.348Z,2.10
2018-06-24T14:47:35.081Z,2.80
2018-06-24T14:50:03.416Z,2.80
2018-06-24T14:52:31.760Z,2.40
2018-06-24T14:55:00.066Z,2.60
2018-06-24T14:57:28.410Z,3.03
2018-06-24T14:59:57.839Z,2.67
2018-06-24T15:02:26.201Z,2.50
2018-06-24T15:04:54.520Z,2.37
2018-06-24T15:07:22.850Z,3.03
2018-06-24T15:09:51.173Z,2.60
2018-06-24T15:12:19.556Z,2.40
2018-06-24T15:14:48.612Z,3.00
2018-06-24T15:17:16.921Z,2.43
2018-06-24T15:19:46.141Z,2.50
2018-06-24T15:22:14.482Z,2.70
2018-06-24T15:24:43.272Z,2.73
2018-06-24T15:27:11.581Z,2.80
2018-06-24T15:29:39.904Z,3.40
2018-06-24T15:32:08.197Z,2.60
2018-06-24T15:34:37.556Z,3.17
2018-06-24T15:37:05.949Z,3.27
2018-06-24T15:39:34.281Z,2.90
2018-06-24T15:42:03.304Z,3.20
2018-06-24T15:44:31.740Z,2.83
2018-06-24T15:47:00.046Z,3.00
2018-06-24T15:49:28.370Z,3.23
2018-06-24T15:51:56.673Z,3.50
2018-06-24T15:54:24.989Z,4.10
2018-06-24T15:56:53.296Z,4.90
2018-06-24T15:59:21.612Z,6.20
2018-06-24T16:01:49.944Z,6.63
2018-06-24T16:04:18.261Z,5.90
2018-06-24T16:06:46.572Z,6.80
2018-06-24T16:09:15.923Z,9.50
2018-06-24T16:11:44.312Z,8.93
2018-06-24T16:14:12.635Z,8.40
2018-06-24T16:16:40.940Z,8.30
2018-06-24T16:19:09.301Z,8.73
2018-06-24T16:21:37.608Z,10.33
2018-06-24T16:24:05.948Z,8.67
2018-06-24T16:26:34.248Z,8.13
2018-06-24T16:29:02.584Z,8.10
2018-06-24T16:31:30.889Z,8.73
2018-06-24T16:33:59.220Z,9.48
2018-06-24T16:36:27.537Z,9.33
2018-06-24T16:38:55.889Z,9.90
2018-06-24T16:41:24.228Z,10.18
2018-06-24T16:43:52.621Z,10.90
2018-06-24T16:46:20.928Z,10.40
2018-06-24T16:48:49.260Z,11.88
2018-06-24T16:51:17.569Z,13.50
2018-06-24T16:53:45.898Z,13.35
2018-06-24T16:56:14.213Z,11.83
2018-06-24T16:58:42.544Z,9.95
2018-06-24T17:01:10.941Z,8.50
2018-06-24T17:03:39.278Z,10.20
2018-06-24T17:06:07.611Z,9.68
2018-06-24T17:08:35.933Z,9.70
2018-06-24T17:11:04.268Z,9.98
2018-06-24T17:13:32.636Z,11.93
2018-06-24T17:16:00.770Z,12.60
2018-06-24T17:18:29.097Z,12.37
2018-06-24T17:20:57.428Z,11.57
2018-06-24T17:23:25.745Z,10.00
2018-06-24T17:25:54.080Z,9.15
2018-06-24T17:28:22.416Z,6.80
2018-06-24T17:30:50.745Z,6.58
2018-06-24T17:33:19.148Z,7.58
2018-06-24T17:35:47.482Z,7.58
2018-06-24T17:38:15.815Z,6.00
2018-06-24T17:40:44.152Z,6.35
2018-06-24T17:43:12.456Z,5.90
2018-06-24T17:45:40.834Z,6.67
2018-06-24T17:48:09.120Z,7.12
2018-06-24T17:50:37.444Z,7.60
2018-06-24T17:53:05.950Z,7.03
2018-06-24T17:55:34.297Z,6.72
2018-06-24T17:58:02.601Z,7.47
2018-06-24T18:00:30.953Z,6.37
2018-06-24T18:02:59.292Z,7.40
2018-06-24T18:05:27.636Z,8.03
2018-06-24T18:07:55.944Z,6.97
2018-06-24T18:10:24.384Z,6.97
2018-06-24T18:12:52.712Z,6.62
2018-06-24T18:15:21.033Z,6.90
2018-06-24T18:17:49.388Z,7.60
2018-06-24T18:20:17.719Z,7.30
2018-06-24T18:22:46.064Z,7.67
2018-06-24T18:25:14.389Z,7.33
2018-06-24T18:27:42.799Z,6.20
2018-06-24T18:30:11.140Z,7.22
2018-06-24T18:32:39.449Z,8.30
2018-06-24T18:35:07.807Z,8.30
2018-06-24T18:37:36.198Z,8.23
2018-06-24T18:40:04.540Z,8.28
2018-06-24T18:42:32.866Z,8.48
2018-06-24T18:45:01.205Z,8.35
2018-06-24T18:47:29.517Z,9.40
2018-06-24T18:49:57.840Z,8.20
2018-06-24T18:52:26.172Z,8.60
2018-06-24T18:54:54.511Z,9.28
2018-06-24T18:57:22.817Z,8.75
2018-06-24T18:59:51.145Z,7.90
2018-06-24T19:02:19.624Z,7.45
2018-06-24T19:04:47.872Z,8.78
2018-06-24T19:07:16.190Z,9.20
2018-06-24T19:09:44.523Z,9.25
2018-06-24T19:12:12.852Z,8.28
2018-06-24T19:14:41.180Z,8.50
2018-06-24T19:17:09.484Z,9.68
2018-06-24T19:19:38.008Z,9.43
2018-06-24T19:22:06.368Z,10.20
2018-06-24T19:24:34.694Z,9.43
2018-06-24T19:27:03.025Z,7.70
2018-06-24T19:29:31.332Z,8.60
2018-06-24T19:31:59.741Z,7.80
2018-06-24T19:34:28.041Z,7.63
2018-06-24T19:36:56.441Z,7.10
2018-06-24T19:39:25.057Z,7.55
2018-06-24T19:41:53.392Z,7.47
2018-06-24T19:44:21.713Z,7.90
2018-06-24T19:46:50.056Z,8.45
2018-06-24T19:49:18.377Z,8.70
2018-06-24T19:51:46.704Z,8.55
2018-06-24T19:54:15.019Z,8.20
2018-06-24T19:56:43.371Z,8.53
2018-06-24T19:59:11.741Z,8.78
2018-06-24T20:01:40.068Z,10.10
2018-06-24T20:04:08.385Z,10.90
2018-06-24T20:06:36.723Z,11.65
2018-06-24T20:09:07.715Z,10.40
2018-06-24T20:11:36.069Z,10.53
2018-06-24T20:14:04.406Z,10.58
2018-06-24T20:16:32.831Z,10.50
2018-06-24T20:19:01.115Z,9.80
2018-06-24T20:21:29.436Z,8.58
2018-06-24T20:23:57.748Z,10.05
2018-06-24T20:26:26.172Z,8.80
2018-06-24T20:28:54.504Z,10.00
2018-06-24T20:31:22.833Z,8.13
2018-06-24T20:33:51.136Z,8.68
2018-06-24T20:36:19.557Z,7.87
2018-06-24T20:38:47.864Z,8.28
2018-06-24T20:41:16.271Z,7.58
2018-06-24T20:43:44.594Z,8.05
2018-06-24T20:46:12.917Z,7.80
2018-06-24T20:48:41.231Z,7.80
2018-06-24T20:51:09.576Z,8.05
2018-06-24T20:53:37.640Z,8.40
2018-06-24T20:56:06.041Z,8.55
2018-06-24T20:58:34.324Z,8.85
2018-06-24T21:01:02.660Z,9.93
2018-06-24T21:03:30.969Z,9.43
2018-06-24T21:05:59.313Z,10.53
2018-06-24T21:08:27.615Z,9.45
2018-06-24T21:10:55.985Z,11.65
2018-06-24T21:13:24.292Z,10.95
2018-06-24T21:15:52.616Z,10.23
2018-06-24T21:18:20.927Z,10.20
2018-06-24T21:20:49.261Z,10.95
2018-06-24T21:23:17.574Z,11.35
2018-06-24T21:25:45.904Z,9.98
2018-06-24T21:28:14.224Z,11.10
2018-06-24T21:30:42.552Z,10.23
2018-06-24T21:33:10.884Z,10.03
2018-06-24T21:35:39.213Z,10.85
2018-06-24T21:38:07.533Z,10.18
2018-06-24T21:40:35.839Z,9.38
2018-06-24T21:43:04.174Z,10.43
2018-06-24T21:45:32.473Z,9.68
2018-06-24T21:48:00.803Z,8.90
2018-06-24T21:50:29.114Z,9.83
2018-06-24T21:52:57.469Z,9.60
2018-06-24T21:55:25.775Z,8.68
2018-06-24T21:57:54.114Z,10.03
2018-06-24T22:00:22.661Z,9.88
2018-06-24T22:02:50.988Z,8.85
2018-06-24T22:05:19.297Z,10.23
2018-06-24T22:07:47.630Z,9.55
2018-06-24T22:10:15.936Z,9.88
2018-06-24T22:12:44.277Z,9.65
2018-06-24T22:15:12.593Z,10.15
2018-06-24T22:17:40.928Z,9.68
2018-06-24T22:20:09.248Z,9.05
2018-06-24T22:22:37.580Z,9.95
2018-06-24T22:25:05.948Z,9.80
2018-06-24T22:27:34.272Z,9.90
2018-06-24T22:30:02.613Z,10.15
2018-06-24T22:32:30.949Z,9.38
2018-06-24T22:34:59.256Z,9.25
2018-06-24T22:37:27.581Z,9.70
2018-06-24T22:39:55.880Z,9.68
2018-06-24T22:42:24.217Z,9.28
2018-06-24T22:44:52.532Z,9.63
2018-06-24T22:47:20.876Z,10.32
2018-06-24T22:49:49.188Z,10.10
2018-06-24T22:52:17.519Z,11.40
2018-06-24T22:54:45.828Z,10.10
2018-06-24T22:57:14.155Z,10.68
2018-06-24T23:00:08.460Z,10.60
2018-06-24T23:02:37.076Z,10.90
2018-06-24T23:05:05.490Z,10.85
2018-06-24T23:07:33.820Z,12.10
2018-06-24T23:10:02.432Z,12.00
2018-06-24T23:12:30.523Z,11.83
2018-06-24T23:14:58.853Z,11.97
2018-06-24T23:17:27.180Z,11.00
2018-06-24T23:19:55.500Z,11.05
2018-06-24T23:22:23.830Z,11.05
2018-06-24T23:24:52.147Z,12.00
2018-06-24T23:27:20.480Z,12.15
2018-06-24T23:29:48.895Z,11.22
2018-06-24T23:32:17.344Z,12.23
2018-06-24T23:34:45.710Z,11.80
2018-06-24T23:37:14.044Z,11.60
2018-06-24T23:39:42.345Z,12.15
2018-06-24T23:42:10.681Z,11.97
2018-06-24T23:44:38.992Z,12.95
2018-06-24T23:47:07.316Z,13.00
2018-06-24T23:49:35.624Z,12.95
2018-06-24T23:52:03.956Z,12.55
2018-06-24T23:54:32.256Z,13.75
2018-06-24T23:57:00.584Z,12.35
2018-06-24T23:59:28.894Z,12.40
